Home > Products > Valid Products > TAF

000
FTUS44 KLUB 010520
TAFLBB
TAF
KLBB 010520Z 0106/0206 18008KT P6SM SCT120 BKN250
     FM011400 22015G23KT P6SM FEW090 SCT250=



000
FTUS44 KLUB 010335 AAA
TAFCDS
TAF AMD
KCDS 010335Z 0104/0124 13012KT P6SM SCT120 BKN250
     FM011400 18014G22KT P6SM SCT060 SCT250=



000
FTUS44 KLUB 010335 AAA
TAFCDS
TAF AMD
KCDS 010335Z 0104/0124 13012KT P6SM SCT120 BKN250
     FM011400 18014G22KT P6SM SCT060 SCT250=



000
FTUS44 KLUB 312346 AAA
TAFLBB
TAF AMD
KLBB 312346Z 0100/0124 18013KT P6SM VCSH SCT050 BKN100 BKN250
      TEMPO 0100/0101 VRB15G40KT -SHRA BKN050
     FM010100 18008KT P6SM SCT120 BKN250
     FM011400 21014G23KT P6SM FEW090 SCT250=



000
FTUS44 KLUB 312346 AAA
TAFLBB
TAF AMD
KLBB 312346Z 0100/0124 18013KT P6SM VCSH SCT050 BKN100 BKN250
      TEMPO 0100/0101 VRB15G40KT -SHRA BKN050
     FM010100 18008KT P6SM SCT120 BKN250
     FM011400 21014G23KT P6SM FEW090 SCT250=



000
FTUS44 KLUB 312331
TAFCDS
TAF
KCDS 312331Z 0100/0124 17011KT P6SM SCT050 BKN080 BKN250
      TEMPO 0100/0101 VRB15G40KT -TSRA BKN050CB
     FM010200 14012KT P6SM BKN100 BKN250
     FM011400 18014G22KT P6SM SCT060 SCT250=



000
FTUS44 KLUB 312331
TAFLBB
TAF
KLBB 312331Z 0100/0124 18013KT P6SM VCSH SCT060 BKN100 BKN250
      TEMPO 0100/0101 VRB15G30KT -SHRA BKN060
     FM010100 18008KT P6SM SCT120 BKN250
     FM011400 21014G23KT P6SM FEW090 SCT250=



000
FTUS44 KLUB 312331
TAFCDS
TAF
KCDS 312331Z 0100/0124 17011KT P6SM SCT050 BKN080 BKN250
      TEMPO 0100/0101 VRB15G40KT -TSRA BKN050CB
     FM010200 14012KT P6SM BKN100 BKN250
     FM011400 18014G22KT P6SM SCT060 SCT250=



000
FTUS44 KLUB 312202 AAA
TAFCDS
TAF AMD
KCDS 312202Z 3122/0118 17016KT P6SM BKN080 BKN250
      TEMPO 3122/0101 VRB15G40KT -TSRA BKN080CB=



000
FTUS44 KLUB 312126 AAA
TAFLBB
TAF AMD
KLBB 312126Z 3121/0118 18010KT P6SM BKN100 BKN250
      TEMPO 3121/3124 VRB15G30KT -TSRA BKN090CB=



000
FTUS44 KLUB 311720
TAFCDS
TAF
KCDS 311720Z 3118/0118 16008KT P6SM SCT070 BKN250=



000
FTUS44 KLUB 311720
TAFLBB
TAF
KLBB 311720Z 3118/0118 22009KT P6SM SCT090 BKN250=



000
FTUS44 KLUB 311720
TAFLBB
TAF
KLBB 311720Z 3118/0118 22009KT P6SM SCT090 BKN250=



000
FTUS44 KLUB 311720
TAFCDS
TAF
KCDS 311720Z 3118/0118 16008KT P6SM SCT070 BKN250=



000
FTUS44 KLUB 311131
TAFCDS
TAF
KCDS 311131Z 3112/0112 VRB06KT P6SM SCT200
     FM311700 13008KT P6SM SCT070 SCT200
     FM010000 09008KT P6SM BKN070=



000
FTUS44 KLUB 311131
TAFLBB
TAF
KLBB 311131Z 3112/0112 27008KT P6SM SCT200
     FM311800 21013KT P6SM SCT090 BKN200
     FM010000 18013KT P6SM BKN200=



000
FTUS44 KLUB 310520
TAFCDS
TAF
KCDS 310520Z 3106/0106 17011KT P6SM BKN150 BKN300
     FM010000 14007KT P6SM OVC250=



000
FTUS44 KLUB 310520
TAFLBB
TAF
KLBB 310520Z 3106/0106 24009KT P6SM SCT150 BKN250 WS003/21035KT
     FM311500 23015KT P6SM BKN090=



000
FTUS44 KLUB 310520
TAFCDS
TAF
KCDS 310520Z 3106/0106 17011KT P6SM BKN150 BKN300
     FM010000 14007KT P6SM OVC250=



000
FTUS44 KLUB 310520
TAFLBB
TAF
KLBB 310520Z 3106/0106 24009KT P6SM SCT150 BKN250 WS003/21035KT
     FM311500 23015KT P6SM BKN090=



000
FTUS44 KLUB 310340 AAA
TAFLBB
TAF AMD
KLBB 310340Z 3104/3124 24009KT P6SM SCT150 BKN250 WS003/21035KT
     FM311500 24015KT P6SM BKN140 WS010/27040KT=



000
FTUS44 KLUB 302338
TAFCDS
TAF
KCDS 302338Z 3100/3124 17011KT P6SM BKN150 BKN300=



000
FTUS44 KLUB 302338
TAFLBB
TAF
KLBB 302338Z 3100/3124 19011KT P6SM SCT140 OVC250
     FM310300 24009KT P6SM SCT150 BKN250 WS008/21035KT
     FM311500 24015KT P6SM BKN140 WS010/27040KT=



000
FTUS44 KLUB 301722
TAFCDS
TAF
KCDS 301722Z 3018/3118 16010KT P6SM BKN150 OVC250=



000
FTUS44 KLUB 301722
TAFLBB
TAF
KLBB 301722Z 3018/3118 16011KT P6SM SCT150 OVC250
     FM302100 21013G20KT P6SM BKN120 OVC250
     FM310100 24009KT P6SM SCT150 BKN250=



000
FTUS44 KLUB 301120
TAFLBB
TAF
KLBB 301120Z 3012/3112 13007KT P6SM FEW150 BKN250
     FM301800 17011KT P6SM BKN120 OVC250=



000
FTUS44 KLUB 301120
TAFCDS
TAF
KCDS 301120Z 3012/3112 VRB05KT P6SM SCT250
     FM301800 16010KT P6SM BKN150 OVC250=



000
FTUS44 KLUB 301120
TAFLBB
TAF
KLBB 301120Z 3012/3112 13007KT P6SM FEW150 BKN250
     FM301800 17011KT P6SM BKN120 OVC250=



000
FTUS44 KLUB 301120
TAFCDS
TAF
KCDS 301120Z 3012/3112 VRB05KT P6SM SCT250
     FM301800 16010KT P6SM BKN150 OVC250=



000
FTUS44 KLUB 300520
TAFCDS
TAF
KCDS 300520Z 3006/3106 04006KT P6SM FEW250
     FM301500 13005KT P6SM BKN120 BKN250=



000
FTUS44 KLUB 300520
TAFLBB
TAF
KLBB 300520Z 3006/3106 04008KT P6SM SCT250
     FM301500 13007KT P6SM BKN100 BKN250=



000
FTUS44 KLUB 300520
TAFCDS
TAF
KCDS 300520Z 3006/3106 04006KT P6SM FEW250
     FM301500 13005KT P6SM BKN120 BKN250=



000
FTUS44 KLUB 300520
TAFLBB
TAF
KLBB 300520Z 3006/3106 04008KT P6SM SCT250
     FM301500 13007KT P6SM BKN100 BKN250=



000
FTUS44 KLUB 292322
TAFCDS
TAF
KCDS 292322Z 3000/3024 04015G23KT P6SM FEW250
     FM300100 04009KT P6SM FEW150 SCT250
     FM301500 13005KT P6SM BKN120 BKN250=



000
FTUS44 KLUB 292322
TAFLBB
TAF
KLBB 292322Z 3000/3024 05019G24KT P6SM SCT250
     FM300100 05009KT P6SM SCT250
     FM301500 13007KT P6SM BKN100 BKN250=



000
FTUS44 KLUB 292322
TAFLBB
TAF
KLBB 292322Z 3000/3024 05019G24KT P6SM SCT250
     FM300100 05009KT P6SM SCT250
     FM301500 13007KT P6SM BKN100 BKN250=



000
FTUS44 KLUB 292322
TAFCDS
TAF
KCDS 292322Z 3000/3024 04015G23KT P6SM FEW250
     FM300100 04009KT P6SM FEW150 SCT250
     FM301500 13005KT P6SM BKN120 BKN250=



000
FTUS44 KLUB 291720
TAFLBB
TAF
KLBB 291720Z 2918/3018 01023G30KT P6SM FEW250
     FM300100 05011KT P6SM SCT250
     FM301500 13007KT P6SM BKN100 BKN250=



000
FTUS44 KLUB 291720
TAFCDS
TAF
KCDS 291720Z 2918/3018 01024G33KT P6SM FEW150 FEW250
     FM300100 04009KT P6SM FEW150 SCT250
     FM301500 13005KT P6SM BKN120 BKN250=



000
FTUS44 KLUB 291720
TAFCDS
TAF
KCDS 291720Z 2918/3018 01024G33KT P6SM FEW150 FEW250
     FM300100 04009KT P6SM FEW150 SCT250
     FM301500 13005KT P6SM BKN120 BKN250=



000
FTUS44 KLUB 291720
TAFLBB
TAF
KLBB 291720Z 2918/3018 01023G30KT P6SM FEW250
     FM300100 05011KT P6SM SCT250
     FM301500 13007KT P6SM BKN100 BKN250=



000
FTUS44 KLUB 291125
TAFLBB
TAF
KLBB 291125Z 2912/3012 27011KT P6SM SKC
     FM291500 32016G23KT P6SM SKC
     FM291700 01020G30KT P6SM FEW250
     FM300100 05010KT P6SM SCT250=



000
FTUS44 KLUB 291125
TAFLBB
TAF
KLBB 291125Z 2912/3012 27011KT P6SM SKC
     FM291500 32016G23KT P6SM SKC
     FM291700 01020G30KT P6SM FEW250
     FM300100 05010KT P6SM SCT250=



000
FTUS44 KLUB 291125
TAFCDS
TAF
KCDS 291125Z 2912/3012 27007KT P6SM SKC
     FM291500 33015KT P6SM SKC
     FM291700 01023G33KT P6SM FEW150 FEW250
     FM300100 04009KT P6SM FEW150 SCT250=



000
FTUS44 KLUB 291125
TAFCDS
TAF
KCDS 291125Z 2912/3012 27007KT P6SM SKC
     FM291500 33015KT P6SM SKC
     FM291700 01023G33KT P6SM FEW150 FEW250
     FM300100 04009KT P6SM FEW150 SCT250=



    US Dept of Commerce
    National Oceanic and Atmospheric Administration
    National Weather Service
    1325 East West Highway
    Silver Spring, MD 20910
    Page Author: NWS Internet Services Team
Disclaimer
Information Quality
Credits
Glossary
Privacy Policy
Freedom of Information Act (FOIA)
About Us
Career Opportunities